sensor_id;sensor_type;location;lat;lon;timestamp;pressure;altitude;pressure_sealevel;temperature;humidity
58239;BME280;44037;55.638;37.356;2023-06-01T00:02:06;98763.41;;;6.93;100.00
58239;BME280;44037;55.638;37.356;2023-06-01T00:04:33;98759.94;;;6.90;100.00
58239;BME280;44037;55.638;37.356;2023-06-01T00:07:06;98758.22;;;6.89;100.00
58239;BME280;44037;55.638;37.356;2023-06-01T00:09:35;98756.50;;;6.88;100.00
58239;BME280;44037;55.638;37.356;2023-06-01T00:12:03;98755.59;;;6.88;100.00
58239;BME280;44037;55.638;37.356;2023-06-01T00:14:31;98758.19;;;6.88;100.00
58239;BME280;44037;55.638;37.356;2023-06-01T00:16:58;98759.03;;;6.87;100.00
58239;BME280;44037;55.638;37.356;2023-06-01T00:19:26;98763.34;;;6.86;100.00
58239;BME280;44037;55.638;37.356;2023-06-01T00:21:53;98757.28;;;6.84;100.00
58239;BME280;44037;55.638;37.356;2023-06-01T00:24:21;98759.88;;;6.83;100.00
58239;BME280;44037;55.638;37.356;2023-06-01T00:26:50;98758.97;;;6.81;100.00
58239;BME280;44037;55.638;37.356;2023-06-01T00:29:17;98758.97;;;6.81;100.00
58239;BME280;44037;55.638;37.356;2023-06-01T00:31:44;98757.25;;;6.81;100.00
58239;BME280;44037;55.638;37.356;2023-06-01T00:34:11;98753.84;;;6.81;100.00
58239;BME280;44037;55.638;37.356;2023-06-01T00:36:39;98747.84;;;6.80;100.00
58239;BME280;44037;55.638;37.356;2023-06-01T00:39:06;98746.13;;;6.82;100.00
58239;BME280;44037;55.638;37.356;2023-06-01T00:41:34;98747.00;;;6.84;100.00
58239;BME280;44037;55.638;37.356;2023-06-01T00:44:02;98742.72;;;6.85;100.00
58239;BME280;44037;55.638;37.356;2023-06-01T00:46:30;98745.31;;;6.86;100.00
58239;BME280;44037;55.638;37.356;2023-06-01T00:48:58;98750.50;;;6.89;100.00
58239;BME280;44037;55.638;37.356;2023-06-01T00:51:26;98744.47;;;6.89;100.00
58239;BME280;44037;55.638;37.356;2023-06-01T00:53:53;98739.34;;;6.92;100.00
58239;BME280;44037;55.638;37.356;2023-06-01T00:56:21;98741.91;;;6.92;100.00
58239;BME280;44037;55.638;37.356;2023-06-01T00:58:48;98743.66;;;6.93;100.00
58239;BME280;44037;55.638;37.356;2023-06-01T01:01:17;98741.97;;;6.95;100.00
58239;BME280;44037;55.638;37.356;2023-06-01T01:03:49;98735.13;;;6.97;100.00
58239;BME280;44037;55.638;37.356;2023-06-01T01:06:29;98739.41;;;7.00;100.00
58239;BME280;44037;55.638;37.356;2023-06-01T01:09:09;98735.16;;;7.03;100.00
58239;BME280;44037;55.638;37.356;2023-06-01T01:11:39;98733.47;;;7.07;100.00
58239;BME280;44037;55.638;37.356;2023-06-01T01:14:19;98737.81;;;7.10;100.00
58239;BME280;44037;55.638;37.356;2023-06-01T01:16:54;98728.41;;;7.16;100.00
58239;BME280;44037;55.638;37.356;2023-06-01T01:19:43;98728.44;;;7.22;100.00
58239;BME280;44037;55.638;37.356;2023-06-01T01:22:34;98725.94;;;7.30;100.00
58239;BME280;44037;55.638;37.356;2023-06-01T01:25:20;98732.00;;;7.37;100.00
58239;BME280;44037;55.638;37.356;2023-06-01T01:28:00;98730.34;;;7.44;100.00
58239;BME280;44037;55.638;37.356;2023-06-01T01:30:37;98722.63;;;7.48;100.00
58239;BME280;44037;55.638;37.356;2023-06-01T01:33:05;98727.00;;;7.56;100.00
58239;BME280;44037;55.638;37.356;2023-06-01T01:35:33;98720.16;;;7.62;100.00
58239;BME280;44037;55.638;37.356;2023-06-01T01:38:01;98712.44;;;7.70;100.00
58239;BME280;44037;55.638;37.356;2023-06-01T01:40:28;98709.09;;;7.80;100.00
58239;BME280;44037;55.638;37.356;2023-06-01T01:42:55;98716.00;;;7.91;100.00
58239;BME280;44037;55.638;37.356;2023-06-01T01:45:23;98712.59;;;7.98;100.00
58239;BME280;44037;55.638;37.356;2023-06-01T01:47:57;98721.25;;;8.06;100.00
58239;BME280;44037;55.638;37.356;2023-06-01T01:50:28;98718.72;;;8.15;100.00
58239;BME280;44037;55.638;37.356;2023-06-01T01:52:59;98724.75;;;8.25;100.00
58239;BME280;44037;55.638;37.356;2023-06-01T01:55:26;98717.88;;;8.32;100.00
58239;BME280;44037;55.638;37.356;2023-06-01T01:57:55;98715.34;;;8.43;100.00
58239;BME280;44037;55.638;37.356;2023-06-01T02:00:23;98714.56;;;8.55;100.00
58239;BME280;44037;55.638;37.356;2023-06-01T02:02:52;98714.59;;;8.73;100.00
58239;BME280;44037;55.638;37.356;2023-06-01T02:05:20;98714.63;;;8.92;100.00
58239;BME280;44037;55.638;37.356;2023-06-01T02:07:47;98716.38;;;9.15;100.00
58239;BME280;44037;55.638;37.356;2023-06-01T02:10:14;98715.50;;;9.36;100.00
58239;BME280;44037;55.638;37.356;2023-06-01T02:12:41;98720.63;;;9.59;100.00
58239;BME280;44037;55.638;37.356;2023-06-01T02:15:09;98715.44;;;9.81;100.00
58239;BME280;44037;55.638;37.356;2023-06-01T02:17:36;98710.19;;;10.03;100.00
58239;BME280;44037;55.638;37.356;2023-06-01T02:20:06;98718.72;;;10.23;100.00
58239;BME280;44037;55.638;37.356;2023-06-01T02:22:33;98712.63;;;10.44;100.00
58239;BME280;44037;55.638;37.356;2023-06-01T02:25:00;98715.09;;;10.65;100.00
58239;BME280;44037;55.638;37.356;2023-06-01T02:27:31;98717.56;;;10.86;100.00
58239;BME280;44037;55.638;37.356;2023-06-01T02:29:58;98721.75;;;11.06;100.00
58239;BME280;44037;55.638;37.356;2023-06-01T02:32:25;98722.44;;;11.27;100.00
58239;BME280;44037;55.638;37.356;2023-06-01T02:34:53;98724.00;;;11.45;100.00
58239;BME280;44037;55.638;37.356;2023-06-01T02:37:21;98727.31;;;11.62;100.00
58239;BME280;44037;55.638;37.356;2023-06-01T02:39:49;98727.13;;;11.81;100.00
58239;BME280;44037;55.638;37.356;2023-06-01T02:42:16;98723.53;;;11.96;100.00
58239;BME280;44037;55.638;37.356;2023-06-01T02:44:43;98717.34;;;12.09;100.00
58239;BME280;44037;55.638;37.356;2023-06-01T02:47:10;98714.59;;;12.22;100.00
58239;BME280;44037;55.638;37.356;2023-06-01T02:49:37;98717.03;;;12.34;100.00
58239;BME280;44037;55.638;37.356;2023-06-01T02:52:05;98721.25;;;12.44;100.00
58239;BME280;44037;55.638;37.356;2023-06-01T02:54:34;98727.16;;;12.56;100.00
58239;BME280;44037;55.638;37.356;2023-06-01T02:57:01;98727.03;;;12.64;100.00
58239;BME280;44037;55.638;37.356;2023-06-01T02:59:28;98726.06;;;12.71;100.00
58239;BME280;44037;55.638;37.356;2023-06-01T03:01:55;98729.41;;;12.79;100.00
58239;BME280;44037;55.638;37.356;2023-06-01T03:04:22;98718.91;;;12.87;100.00
58239;BME280;44037;55.638;37.356;2023-06-01T03:06:50;98727.38;;;12.98;100.00
58239;BME280;44037;55.638;37.356;2023-06-01T03:09:18;98716.88;;;13.08;100.00
58239;BME280;44037;55.638;37.356;2023-06-01T03:11:47;98728.00;;;13.16;100.00
58239;BME280;44037;55.638;37.356;2023-06-01T03:14:14;98723.47;;;13.27;100.00
58239;BME280;44037;55.638;37.356;2023-06-01T03:16:41;98726.81;;;13.35;100.00
58239;BME280;44037;55.638;37.356;2023-06-01T03:19:08;98726.69;;;13.45;100.00
58239;BME280;44037;55.638;37.356;2023-06-01T03:21:35;98726.50;;;13.56;100.00
58239;BME280;44037;55.638;37.356;2023-06-01T03:24:02;98720.22;;;13.67;100.00
58239;BME280;44037;55.638;37.356;2023-06-01T03:26:30;98717.44;;;13.78;100.00
58239;BME280;44037;55.638;37.356;2023-06-01T03:28:58;98728.50;;;13.90;100.00
58239;BME280;44037;55.638;37.356;2023-06-01T03:31:26;98727.47;;;13.98;100.00
58239;BME280;44037;55.638;37.356;2023-06-01T03:33:54;98728.13;;;14.08;100.00
58239;BME280;44037;55.638;37.356;2023-06-01T03:36:21;98726.25;;;14.17;100.00
58239;BME280;44037;55.638;37.356;2023-06-01T03:38:48;98732.09;;;14.26;100.00
58239;BME280;44037;55.638;37.356;2023-06-01T03:41:15;98723.28;;;14.34;100.00
58239;BME280;44037;55.638;37.356;2023-06-01T03:43:42;98723.09;;;14.43;100.00
58239;BME280;44037;55.638;37.356;2023-06-01T03:46:11;98731.59;;;14.53;100.00
58239;BME280;44037;55.638;37.356;2023-06-01T03:48:38;98728.78;;;14.62;100.00
58239;BME280;44037;55.638;37.356;2023-06-01T03:51:05;98723.41;;;14.70;100.00
58239;BME280;44037;55.638;37.356;2023-06-01T03:53:32;98726.63;;;14.81;100.00
58239;BME280;44037;55.638;37.356;2023-06-01T03:56:00;98728.97;;;14.94;100.00
58239;BME280;44037;55.638;37.356;2023-06-01T03:58:28;98723.47;;;15.06;100.00
58239;BME280;44037;55.638;37.356;2023-06-01T04:00:56;98724.00;;;15.19;100.00
58239;BME280;44037;55.638;37.356;2023-06-01T04:03:25;98713.25;;;15.33;100.00
58239;BME280;44037;55.638;37.356;2023-06-01T04:05:53;98712.03;;;15.46;100.00
58239;BME280;44037;55.638;37.356;2023-06-01T04:08:24;98715.09;;;15.62;100.00
58239;BME280;44037;55.638;37.356;2023-06-01T04:10:52;98711.22;;;15.77;98.72
58239;BME280;44037;55.638;37.356;2023-06-01T04:13:19;98708.28;;;15.91;97.34
58239;BME280;44037;55.638;37.356;2023-06-01T04:15:46;98703.53;;;16.06;96.70
58239;BME280;44037;55.638;37.356;2023-06-01T04:18:14;98696.19;;;16.19;94.74
58239;BME280;44037;55.638;37.356;2023-06-01T04:20:42;98695.88;;;16.30;92.69
58239;BME280;44037;55.638;37.356;2023-06-01T04:23:09;98698.22;;;16.39;91.96
58239;BME280;44037;55.638;37.356;2023-06-01T04:25:37;98704.13;;;16.46;90.47
58239;BME280;44037;55.638;37.356;2023-06-01T04:28:04;98701.31;;;16.52;89.53
58239;BME280;44037;55.638;37.356;2023-06-01T04:30:32;98698.53;;;16.58;89.19
58239;BME280;44037;55.638;37.356;2023-06-01T04:32:59;98702.66;;;16.65;88.85
58239;BME280;44037;55.638;37.356;2023-06-01T04:35:26;98703.28;;;16.73;89.30
58239;BME280;44037;55.638;37.356;2023-06-01T04:37:55;98700.31;;;16.84;88.22
58239;BME280;44037;55.638;37.356;2023-06-01T04:40:22;98700.94;;;16.94;87.84
58239;BME280;44037;55.638;37.356;2023-06-01T04:42:49;98700.63;;;17.03;87.78
58239;BME280;44037;55.638;37.356;2023-06-01T04:45:21;98702.97;;;17.13;88.03
58239;BME280;44037;55.638;37.356;2023-06-01T04:47:49;98693.00;;;17.24;87.54
58239;BME280;44037;55.638;37.356;2023-06-01T04:50:16;98694.38;;;17.34;86.20
58239;BME280;44037;55.638;37.356;2023-06-01T04:52:43;98702.00;;;17.42;85.20
58239;BME280;44037;55.638;37.356;2023-06-01T04:55:12;98686.94;;;17.49;84.67
58239;BME280;44037;55.638;37.356;2023-06-01T04:57:40;98687.56;;;17.56;83.80
58239;BME280;44037;55.638;37.356;2023-06-01T05:00:10;98689.13;;;17.61;82.54
58239;BME280;44037;55.638;37.356;2023-06-01T05:02:39;98678.50;;;17.64;83.86
58239;BME280;44037;55.638;37.356;2023-06-01T05:05:08;98680.75;;;17.75;83.65
58239;BME280;44037;55.638;37.356;2023-06-01T05:07:36;98685.56;;;17.88;83.54
58239;BME280;44037;55.638;37.356;2023-06-01T05:10:05;98684.31;;;18.00;83.92
58239;BME280;44037;55.638;37.356;2023-06-01T05:12:34;98679.34;;;18.16;82.44
58239;BME280;44037;55.638;37.356;2023-06-01T05:15:02;98679.72;;;18.29;81.53
58239;BME280;44037;55.638;37.356;2023-06-01T05:17:30;98677.72;;;18.35;80.47
58239;BME280;44037;55.638;37.356;2023-06-01T05:19:57;98673.09;;;18.42;80.37
58239;BME280;44037;55.638;37.356;2023-06-01T05:22:25;98674.59;;;18.49;79.97
58239;BME280;44037;55.638;37.356;2023-06-01T05:24:53;98673.50;;;18.55;79.72
58239;BME280;44037;55.638;37.356;2023-06-01T05:27:20;98665.53;;;18.58;79.66
58239;BME280;44037;55.638;37.356;2023-06-01T05:29:49;98669.59;;;18.65;77.71
58239;BME280;44037;55.638;37.356;2023-06-01T05:32:16;98677.47;;;18.65;78.19
58239;BME280;44037;55.638;37.356;2023-06-01T05:34:43;98667.66;;;18.70;79.19
58239;BME280;44037;55.638;37.356;2023-06-01T05:37:10;98675.94;;;18.82;77.15
58239;BME280;44037;55.638;37.356;2023-06-01T05:39:38;98674.84;;;18.87;76.43
58239;BME280;44037;55.638;37.356;2023-06-01T05:42:05;98680.75;;;18.94;76.95
58239;BME280;44037;55.638;37.356;2023-06-01T05:44:33;98680.44;;;19.02;76.01
58239;BME280;44037;55.638;37.356;2023-06-01T05:47:01;98682.88;;;19.07;74.60
58239;BME280;44037;55.638;37.356;2023-06-01T05:49:28;98675.81;;;19.07;75.36
58239;BME280;44037;55.638;37.356;2023-06-01T05:51:57;98680.16;;;19.08;74.78
58239;BME280;44037;55.638;37.356;2023-06-01T05:54:24;98677.53;;;19.08;75.42
58239;BME280;44037;55.638;37.356;2023-06-01T05:56:52;98672.97;;;19.13;74.49
58239;BME280;44037;55.638;37.356;2023-06-01T05:59:19;98666.66;;;19.17;75.42
58239;BME280;44037;55.638;37.356;2023-06-01T06:01:46;98670.66;;;19.26;74.21
58239;BME280;44037;55.638;37.356;2023-06-01T06:04:15;98670.44;;;19.32;72.92
58239;BME280;44037;55.638;37.356;2023-06-01T06:06:43;98669.44;;;19.35;73.32
58239;BME280;44037;55.638;37.356;2023-06-01T06:09:10;98667.53;;;19.39;73.00
58239;BME280;44037;55.638;37.356;2023-06-01T06:11:39;98670.75;;;19.45;72.88
58239;BME280;44037;55.638;37.356;2023-06-01T06:14:06;98664.38;;;19.51;73.00
58239;BME280;44037;55.638;37.356;2023-06-01T06:16:37;98667.47;;;19.61;72.07
58239;BME280;44037;55.638;37.356;2023-06-01T06:19:05;98669.75;;;19.69;70.92
58239;BME280;44037;55.638;37.356;2023-06-01T06:21:34;98655.63;;;19.71;70.24
58239;BME280;44037;55.638;37.356;2023-06-01T06:24:01;98661.66;;;19.73;69.32
58239;BME280;44037;55.638;37.356;2023-06-01T06:26:29;98659.88;;;19.74;70.49
58239;BME280;44037;55.638;37.356;2023-06-01T06:28:56;98662.47;;;19.75;70.07
58239;BME280;44037;55.638;37.356;2023-06-01T06:31:24;98653.56;;;19.78;69.28
58239;BME280;44037;55.638;37.356;2023-06-01T06:33:51;98656.13;;;19.79;68.69
58239;BME280;44037;55.638;37.356;2023-06-01T06:36:18;98651.53;;;19.85;67.92
58239;BME280;44037;55.638;37.356;2023-06-01T06:38:47;98657.53;;;19.88;67.75
58239;BME280;44037;55.638;37.356;2023-06-01T06:41:14;98652.22;;;19.90;67.01
58239;BME280;44037;55.638;37.356;2023-06-01T06:43:41;98637.22;;;19.92;67.94
58239;BME280;44037;55.638;37.356;2023-06-01T06:46:09;98648.31;;;19.99;67.22
58239;BME280;44037;55.638;37.356;2023-06-01T06:48:36;98644.63;;;20.03;66.23
58239;BME280;44037;55.638;37.356;2023-06-01T06:51:04;98641.91;;;20.04;66.82
58239;BME280;44037;55.638;37.356;2023-06-01T06:53:32;98637.22;;;20.11;65.60
58239;BME280;44037;55.638;37.356;2023-06-01T06:56:00;98637.97;;;20.15;65.42
58239;BME280;44037;55.638;37.356;2023-06-01T06:58:28;98639.50;;;20.19;66.25
58239;BME280;44037;55.638;37.356;2023-06-01T07:00:55;98631.34;;;20.25;66.26
58239;BME280;44037;55.638;37.356;2023-06-01T07:03:22;98638.88;;;20.33;65.30
58239;BME280;44037;55.638;37.356;2023-06-01T07:05:49;98630.78;;;20.37;64.45
58239;BME280;44037;55.638;37.356;2023-06-01T07:08:17;98628.69;;;20.44;64.33
58239;BME280;44037;55.638;37.356;2023-06-01T07:10:45;98617.94;;;20.49;63.58
58239;BME280;44037;55.638;37.356;2023-06-01T07:13:14;98614.31;;;20.51;62.97
58239;BME280;44037;55.638;37.356;2023-06-01T07:15:41;98613.34;;;20.54;63.01
58239;BME280;44037;55.638;37.356;2023-06-01T07:18:08;98614.09;;;20.56;63.76
58239;BME280;44037;55.638;37.356;2023-06-01T07:20:35;98607.75;;;20.60;63.93
58239;BME280;44037;55.638;37.356;2023-06-01T07:23:02;98614.59;;;20.64;62.23
58239;BME280;44037;55.638;37.356;2023-06-01T07:25:29;98607.31;;;20.69;63.10
58239;BME280;44037;55.638;37.356;2023-06-01T07:27:56;98605.38;;;20.73;61.79
58239;BME280;44037;55.638;37.356;2023-06-01T07:30:25;98604.44;;;20.74;60.01
58239;BME280;44037;55.638;37.356;2023-06-01T07:32:52;98603.75;;;20.70;60.53
58239;BME280;44037;55.638;37.356;2023-06-01T07:35:19;98605.59;;;20.68;60.88
58239;BME280;44037;55.638;37.356;2023-06-01T07:37:47;98598.47;;;20.70;61.12
58239;BME280;44037;55.638;37.356;2023-06-01T07:40:14;98591.38;;;20.72;61.34
58239;BME280;44037;55.638;37.356;2023-06-01T07:42:41;98585.13;;;20.75;61.15
58239;BME280;44037;55.638;37.356;2023-06-01T07:45:09;98585.13;;;20.75;60.96
58239;BME280;44037;55.638;37.356;2023-06-01T07:47:38;98585.84;;;20.79;61.53
58239;BME280;44037;55.638;37.356;2023-06-01T07:50:06;98590.78;;;20.85;60.19
58239;BME280;44037;55.638;37.356;2023-06-01T07:52:34;98588.06;;;20.86;59.76
58239;BME280;44037;55.638;37.356;2023-06-01T07:55:01;98592.72;;;20.81;60.34
58239;BME280;44037;55.638;37.356;2023-06-01T07:57:29;98592.78;;;20.80;59.38
58239;BME280;44037;55.638;37.356;2023-06-01T07:59:57;98588.53;;;20.77;59.27
58239;BME280;44037;55.638;37.356;2023-06-01T08:02:24;98591.13;;;20.79;60.08
58239;BME280;44037;55.638;37.356;2023-06-01T08:04:53;98588.31;;;20.82;59.77
58239;BME280;44037;55.638;37.356;2023-06-01T08:07:22;98586.31;;;20.87;58.40
58239;BME280;44037;55.638;37.356;2023-06-01T08:09:53;98587.94;;;20.90;59.01
58239;BME280;44037;55.638;37.356;2023-06-01T08:12:21;98589.50;;;20.94;58.70
58239;BME280;44037;55.638;37.356;2023-06-01T08:14:48;98575.25;;;20.98;59.01
58239;BME280;44037;55.638;37.356;2023-06-01T08:17:17;98579.16;;;21.07;58.35
58239;BME280;44037;55.638;37.356;2023-06-01T08:19:44;98577.03;;;21.15;57.58
58239;BME280;44037;55.638;37.356;2023-06-01T08:22:14;98566.25;;;21.20;56.71
58239;BME280;44037;55.638;37.356;2023-06-01T08:24:41;98580.25;;;21.20;57.94
58239;BME280;44037;55.638;37.356;2023-06-01T08:27:18;98575.66;;;21.24;57.35
58239;BME280;44037;55.638;37.356;2023-06-01T08:29:46;98563.22;;;21.27;56.22
58239;BME280;44037;55.638;37.356;2023-06-01T08:32:14;98576.06;;;21.33;56.48
58239;BME280;44037;55.638;37.356;2023-06-01T08:34:43;98567.84;;;21.40;56.51
58239;BME280;44037;55.638;37.356;2023-06-01T08:37:10;98568.38;;;21.46;55.66
58239;BME280;44037;55.638;37.356;2023-06-01T08:39:39;98566.25;;;21.53;55.32
58239;BME280;44037;55.638;37.356;2023-06-01T08:42:08;98567.97;;;21.54;55.27
58239;BME280;44037;55.638;37.356;2023-06-01T08:44:37;98565.16;;;21.57;56.00
58239;BME280;44037;55.638;37.356;2023-06-01T08:47:05;98558.19;;;21.56;53.02
58239;BME280;44037;55.638;37.356;2023-06-01T08:49:35;98553.31;;;21.48;53.58
58239;BME280;44037;55.638;37.356;2023-06-01T08:52:05;98544.66;;;21.46;53.90
58239;BME280;44037;55.638;37.356;2023-06-01T08:54:33;98548.13;;;21.47;53.81
58239;BME280;44037;55.638;37.356;2023-06-01T08:57:04;98545.41;;;21.48;51.26
58239;BME280;44037;55.638;37.356;2023-06-01T08:59:34;98546.13;;;21.52;52.31
58239;BME280;44037;55.638;37.356;2023-06-01T09:02:01;98545.09;;;21.55;52.18
58239;BME280;44037;55.638;37.356;2023-06-01T09:04:29;98550.22;;;21.58;52.28
58239;BME280;44037;55.638;37.356;2023-06-01T09:06:57;98545.78;;;21.58;51.83
58239;BME280;44037;55.638;37.356;2023-06-01T09:09:24;98547.50;;;21.59;50.51
58239;BME280;44037;55.638;37.356;2023-06-01T09:12:20;98541.31;;;21.60;52.46
58239;BME280;44037;55.638;37.356;2023-06-01T09:14:49;98537.59;;;21.65;50.68
58239;BME280;44037;55.638;37.356;2023-06-01T09:17:22;98540.03;;;21.68;51.62
58239;BME280;44037;55.638;37.356;2023-06-01T09:19:54;98536.31;;;21.72;51.42
58239;BME280;44037;55.638;37.356;2023-06-01T09:22:22;98536.91;;;21.77;51.20
58239;BME280;44037;55.638;37.356;2023-06-01T09:24:56;98540.91;;;21.84;50.99
58239;BME280;44037;55.638;37.356;2023-06-01T09:27:25;98530.09;;;21.89;49.56
58239;BME280;44037;55.638;37.356;2023-06-01T09:29:53;98534.53;;;21.88;48.21
58239;BME280;44037;55.638;37.356;2023-06-01T09:32:21;98532.75;;;21.89;46.58
58239;BME280;44037;55.638;37.356;2023-06-01T09:34:48;98533.88;;;21.85;48.26
58239;BME280;44037;55.638;37.356;2023-06-01T09:37:15;98533.00;;;21.84;48.52
58239;BME280;44037;55.638;37.356;2023-06-01T09:39:43;98533.00;;;21.84;47.14
58239;BME280;44037;55.638;37.356;2023-06-01T09:42:11;98532.16;;;21.84;46.83
58239;BME280;44037;55.638;37.356;2023-06-01T09:44:40;98537.34;;;21.85;48.52
58239;BME280;44037;55.638;37.356;2023-06-01T09:47:09;98538.94;;;21.88;46.96
58239;BME280;44037;55.638;37.356;2023-06-01T09:49:39;98536.41;;;21.86;46.51
58239;BME280;44037;55.638;37.356;2023-06-01T09:52:11;98539.66;;;21.91;46.11
58239;BME280;44037;55.638;37.356;2023-06-01T09:54:42;98539.47;;;21.94;45.33
58239;BME280;44037;55.638;37.356;2023-06-01T09:57:10;98532.31;;;21.97;46.21
58239;BME280;44037;55.638;37.356;2023-06-01T09:59:41;98532.00;;;22.03;45.68
58239;BME280;44037;55.638;37.356;2023-06-01T10:02:12;98531.81;;;22.06;45.91
58239;BME280;44037;55.638;37.356;2023-06-01T10:04:44;98530.88;;;22.07;46.66
58239;BME280;44037;55.638;37.356;2023-06-01T10:07:13;98530.88;;;22.07;45.81
58239;BME280;44037;55.638;37.356;2023-06-01T10:09:41;98522.88;;;22.08;45.35
58239;BME280;44037;55.638;37.356;2023-06-01T10:12:09;98521.03;;;22.11;45.35
58239;BME280;44037;55.638;37.356;2023-06-01T10:14:37;98531.38;;;22.14;44.40
58239;BME280;44037;55.638;37.356;2023-06-01T10:17:07;98525.31;;;22.12;43.02
58239;BME280;44037;55.638;37.356;2023-06-01T10:19:36;98529.09;;;22.07;43.51
58239;BME280;44037;55.638;37.356;2023-06-01T10:22:04;98521.09;;;22.09;44.59
58239;BME280;44037;55.638;37.356;2023-06-01T10:24:32;98517.34;;;22.13;43.46
58239;BME280;44037;55.638;37.356;2023-06-01T10:27:07;98526.03;;;22.15;44.32
58239;BME280;44037;55.638;37.356;2023-06-01T10:29:36;98511.72;;;22.19;44.33
58239;BME280;44037;55.638;37.356;2023-06-01T10:32:06;98512.22;;;22.26;43.61
58239;BME280;44037;55.638;37.356;2023-06-01T10:34:53;98515.34;;;22.33;42.75
58239;BME280;44037;55.638;37.356;2023-06-01T10:37:20;98518.75;;;22.35;42.63
58239;BME280;44037;55.638;37.356;2023-06-01T10:39:48;98514.16;;;22.38;43.93
58239;BME280;44037;55.638;37.356;2023-06-01T10:42:37;98514.88;;;22.42;44.04
58239;BME280;44037;55.638;37.356;2023-06-01T10:45:07;98509.34;;;22.47;44.17
58239;BME280;44037;55.638;37.356;2023-06-01T10:47:46;98510.00;;;22.50;43.89
58239;BME280;44037;55.638;37.356;2023-06-01T10:50:19;98507.53;;;22.47;42.12
58239;BME280;44037;55.638;37.356;2023-06-01T10:52:47;98507.81;;;22.43;41.96
58239;BME280;44037;55.638;37.356;2023-06-01T10:55:22;98503.34;;;22.43;42.48
58239;BME280;44037;55.638;37.356;2023-06-01T10:57:50;98511.09;;;22.46;43.46
58239;BME280;44037;55.638;37.356;2023-06-01T11:00:19;98503.97;;;22.48;43.56
58239;BME280;44037;55.638;37.356;2023-06-01T11:02:55;98508.13;;;22.52;43.33
58239;BME280;44037;55.638;37.356;2023-06-01T11:05:45;98511.53;;;22.54;43.58
58239;BME280;44037;55.638;37.356;2023-06-01T11:08:49;98514.09;;;22.40;43.96
58239;BME280;44037;55.638;37.356;2023-06-01T11:11:17;98504.91;;;22.31;43.52
58239;BME280;44037;55.638;37.356;2023-06-01T11:14:06;98503.59;;;22.38;44.42
58239;BME280;44037;55.638;37.356;2023-06-01T11:16:34;98504.91;;;22.47;42.93
58239;BME280;44037;55.638;37.356;2023-06-01T11:19:04;98493.28;;;22.50;40.92
58239;BME280;44037;55.638;37.356;2023-06-01T11:21:37;98510.75;;;22.52;42.60
58239;BME280;44037;55.638;37.356;2023-06-01T11:24:07;98513.97;;;22.58;43.80
58239;BME280;44037;55.638;37.356;2023-06-01T11:26:36;98501.47;;;22.61;41.69
58239;BME280;44037;55.638;37.356;2023-06-01T11:29:09;98499.22;;;22.69;42.34
58239;BME280;44037;55.638;37.356;2023-06-01T11:31:40;98497.09;;;22.91;41.67
58239;BME280;44037;55.638;37.356;2023-06-01T11:34:11;98494.81;;;22.84;40.04
58239;BME280;44037;55.638;37.356;2023-06-01T11:36:40;98500.09;;;22.84;40.79
58239;BME280;44037;55.638;37.356;2023-06-01T11:39:17;98493.22;;;22.96;40.86
58239;BME280;44037;55.638;37.356;2023-06-01T11:41:47;98492.50;;;23.09;40.54
58239;BME280;44037;55.638;37.356;2023-06-01T11:44:14;98495.03;;;23.10;40.88
58239;BME280;44037;55.638;37.356;2023-06-01T11:46:52;98495.69;;;23.14;40.67
58239;BME280;44037;55.638;37.356;2023-06-01T11:49:22;98487.91;;;23.27;41.18
58239;BME280;44037;55.638;37.356;2023-06-01T11:51:49;98490.25;;;23.31;40.73
58239;BME280;44037;55.638;37.356;2023-06-01T11:54:25;98487.72;;;23.30;40.15
58239;BME280;44037;55.638;37.356;2023-06-01T11:56:55;98492.03;;;23.45;39.81
58239;BME280;44037;55.638;37.356;2023-06-01T11:59:22;98491.72;;;23.65;39.84
58239;BME280;44037;55.638;37.356;2023-06-01T12:01:50;98487.44;;;23.91;39.23
58239;BME280;44037;55.638;37.356;2023-06-01T12:04:23;98483.13;;;24.17;39.98
58239;BME280;44037;55.638;37.356;2023-06-01T12:06:50;98489.75;;;24.37;39.16
58239;BME280;44037;55.638;37.356;2023-06-01T12:09:18;98492.69;;;24.33;39.61
58239;BME280;44037;55.638;37.356;2023-06-01T12:11:46;98488.47;;;24.30;38.12
58239;BME280;44037;55.638;37.356;2023-06-01T12:14:15;98482.75;;;24.36;37.69
58239;BME280;44037;55.638;37.356;2023-06-01T12:16:53;98485.88;;;24.56;37.69
58239;BME280;44037;55.638;37.356;2023-06-01T12:19:23;98482.63;;;24.65;37.64
58239;BME280;44037;55.638;37.356;2023-06-01T12:21:51;98489.13;;;24.74;37.86
58239;BME280;44037;55.638;37.356;2023-06-01T12:24:26;98489.75;;;24.78;37.92
58239;BME280;44037;55.638;37.356;2023-06-01T12:26:54;98480.81;;;24.66;37.53
58239;BME280;44037;55.638;37.356;2023-06-01T12:29:35;98482.06;;;24.60;37.70
58239;BME280;44037;55.638;37.356;2023-06-01T12:32:03;98483.28;;;24.69;36.96
58239;BME280;44037;55.638;37.356;2023-06-01T12:34:31;98487.72;;;24.68;38.24
58239;BME280;44037;55.638;37.356;2023-06-01T12:36:59;98485.28;;;24.78;37.67
58239;BME280;44037;55.638;37.356;2023-06-01T12:39:32;98484.16;;;24.82;37.38
58239;BME280;44037;55.638;37.356;2023-06-01T12:42:03;98478.63;;;24.73;36.96
58239;BME280;44037;55.638;37.356;2023-06-01T12:44:31;98477.97;;;24.69;37.42
58239;BME280;44037;55.638;37.356;2023-06-01T12:46:59;98478.72;;;24.84;37.10
58239;BME280;44037;55.638;37.356;2023-06-01T12:49:28;98480.13;;;25.03;36.74
58239;BME280;44037;55.638;37.356;2023-06-01T12:51:56;98468.38;;;25.07;36.27
58239;BME280;44037;55.638;37.356;2023-06-01T12:54:24;98473.97;;;25.15;35.84
58239;BME280;44037;55.638;37.356;2023-06-01T12:56:51;98478.44;;;25.02;37.00
58239;BME280;44037;55.638;37.356;2023-06-01T12:59:18;98475.38;;;24.82;36.94